createdAt,value
2018-05-14T00:00:50.454Z,99.99
2018-05-14T00:01:50.469Z,99.99
2018-05-14T00:02:50.501Z,99.99
2018-05-14T00:03:50.535Z,99.99
2018-05-14T00:04:50.526Z,99.99
2018-05-14T00:05:50.556Z,99.57
2018-05-14T00:06:50.562Z,98.81
2018-05-14T00:07:50.658Z,98.52
2018-05-14T00:08:50.609Z,98.71
2018-05-14T00:09:50.680Z,98.81
2018-05-14T00:10:50.644Z,98.04
2018-05-14T00:11:50.662Z,98.24
2018-05-14T00:12:50.797Z,98.04
2018-05-14T00:13:50.699Z,98.24
2018-05-14T00:14:50.787Z,98.71
2018-05-14T00:15:50.761Z,98.71
2018-05-14T00:16:50.768Z,98.81
2018-05-14T00:17:50.873Z,98.61
2018-05-14T00:18:50.810Z,98.04
2018-05-14T00:19:50.820Z,97.85
2018-05-14T00:20:50.841Z,98.04
2018-05-14T00:21:50.981Z,97.66
2018-05-14T00:22:50.887Z,97.75
2018-05-14T00:23:50.900Z,98.14
2018-05-14T00:24:50.920Z,98.33
2018-05-14T00:25:50.941Z,97.47
2018-05-14T00:26:50.963Z,96.99
2018-05-14T00:27:50.976Z,98.18
2018-05-14T00:28:50.991Z,99.99
2018-05-14T00:29:51.017Z,99.99
2018-05-14T00:30:51.058Z,99.99
2018-05-14T00:31:51.074Z,99.99
2018-05-14T00:32:51.077Z,99.99
2018-05-14T00:33:51.097Z,99.99
2018-05-14T00:34:51.181Z,99.99
2018-05-14T00:35:51.241Z,99.99
2018-05-14T00:36:51.158Z,99.99
2018-05-14T00:37:51.200Z,99.99
2018-05-14T00:38:51.191Z,99.99
2018-05-14T00:39:51.219Z,99.99
2018-05-14T00:40:51.279Z,99.99
2018-05-14T00:41:51.251Z,99.99
2018-05-14T00:42:51.273Z,99.99
2018-05-14T00:43:51.289Z,99.99
2018-05-14T00:44:51.371Z,99.99
2018-05-14T00:45:51.359Z,99.99
2018-05-14T00:46:51.358Z,99.99
2018-05-14T00:47:51.372Z,99.99
2018-05-14T00:48:51.396Z,99.99
2018-05-14T00:49:51.405Z,99.99
2018-05-14T00:50:51.427Z,99.99
2018-05-14T00:51:51.446Z,99.99
2018-05-14T00:52:51.462Z,99.99
2018-05-14T00:53:51.489Z,99.99
2018-05-14T00:54:51.531Z,99.99
2018-05-14T00:55:51.532Z,99.99
2018-05-14T00:56:51.541Z,99.99
2018-05-14T00:57:51.652Z,99.99
2018-05-14T00:58:51.640Z,99.99
2018-05-14T00:59:51.643Z,99.99
2018-05-14T01:00:51.631Z,99.99
2018-05-14T01:01:51.645Z,99.99
2018-05-14T01:02:51.663Z,99.99
2018-05-14T01:03:51.687Z,99.99
2018-05-14T01:04:51.700Z,99.99
2018-05-14T01:05:51.731Z,99.99
2018-05-14T01:06:51.767Z,99.99
2018-05-14T01:07:51.794Z,99.99
2018-05-14T01:08:51.866Z,99.99
2018-05-14T01:09:51.810Z,99.52
2018-05-14T01:10:51.822Z,99.81
2018-05-14T01:11:51.839Z,99.99
2018-05-14T01:12:51.857Z,99.99
2018-05-14T01:13:51.877Z,99.99
2018-05-14T01:14:51.898Z,99.99
2018-05-14T01:15:51.914Z,99.99
2018-05-14T01:16:51.935Z,99.99
2018-05-14T01:17:51.991Z,98.95
2018-05-14T01:18:52.033Z,98.85
2018-05-14T01:19:51.995Z,99.52
2018-05-14T01:20:52.083Z,99.99
2018-05-14T01:21:52.031Z,99.99
2018-05-14T01:22:52.088Z,99.99
2018-05-14T01:23:52.083Z,99.24
2018-05-14T01:24:52.103Z,98.85
2018-05-14T01:25:52.110Z,98.99
2018-05-14T01:26:52.135Z,99.76
2018-05-14T01:27:52.187Z,99.99
2018-05-14T01:28:52.189Z,99.33
2018-05-14T01:29:52.281Z,98.66
2018-05-14T01:30:52.276Z,98.95
2018-05-14T01:31:52.246Z,98.47
2018-05-14T01:32:52.252Z,99.43
2018-05-14T01:33:52.321Z,99.81
2018-05-14T01:34:52.291Z,99.99
2018-05-14T01:35:52.308Z,99.52
2018-05-14T01:36:52.329Z,99.52
2018-05-14T01:37:52.341Z,99.95
2018-05-14T01:38:52.378Z,99.99
2018-05-14T01:39:52.405Z,99.99
2018-05-14T01:40:52.404Z,99.99
2018-05-14T01:41:52.482Z,99.99
2018-05-14T01:42:52.462Z,99.99
2018-05-14T01:43:52.465Z,99.99
2018-05-14T01:44:52.504Z,99.99
2018-05-14T01:45:52.615Z,99.99
2018-05-14T01:46:52.576Z,99.99
2018-05-14T01:47:52.544Z,99.99
2018-05-14T01:48:52.559Z,99.99
2018-05-14T01:49:52.676Z,99.99
2018-05-14T01:50:52.609Z,99.99
2018-05-14T01:51:52.618Z,99.99
2018-05-14T01:52:52.670Z,99.99
2018-05-14T01:53:52.652Z,99.99
2018-05-14T01:54:52.679Z,99.99
2018-05-14T01:55:52.694Z,99.99
2018-05-14T01:56:52.713Z,99.52
2018-05-14T01:57:52.749Z,99.71
2018-05-14T01:58:52.754Z,99.00
2018-05-14T01:59:52.778Z,99.00
2018-05-14T02:00:52.848Z,98.43
2018-05-14T02:01:52.816Z,97.75
2018-05-14T02:02:52.836Z,98.33
2018-05-14T02:03:52.893Z,99.52
2018-05-14T02:04:52.870Z,99.81
2018-05-14T02:05:52.887Z,99.99
2018-05-14T02:06:52.932Z,99.76
2018-05-14T02:07:52.926Z,99.67
2018-05-14T02:08:52.944Z,99.19
2018-05-14T02:09:52.969Z,99.67
2018-05-14T02:10:53.121Z,99.96
2018-05-14T02:11:53.053Z,99.76
2018-05-14T02:12:53.127Z,99.71
2018-05-14T02:13:53.047Z,99.99
2018-05-14T02:14:53.124Z,99.99
2018-05-14T02:15:53.081Z,99.90
2018-05-14T02:16:53.101Z,99.52
2018-05-14T02:17:53.181Z,98.81
2018-05-14T02:18:53.143Z,97.56
2018-05-14T02:19:53.161Z,97.37
2018-05-14T02:20:53.322Z,97.37
2018-05-14T02:21:53.204Z,98.28
2018-05-14T02:22:53.235Z,98.81
2018-05-14T02:23:53.301Z,98.90
2018-05-14T02:24:53.257Z,98.90
2018-05-14T02:25:53.365Z,99.86
2018-05-14T02:26:53.316Z,98.57
2018-05-14T02:27:53.324Z,98.85
2018-05-14T02:28:53.342Z,98.71
2018-05-14T02:29:53.356Z,98.57
2018-05-14T02:30:53.448Z,98.38
2018-05-14T02:31:53.398Z,98.75
2018-05-14T02:32:53.413Z,98.95
2018-05-14T02:33:53.436Z,97.85
2018-05-14T02:34:53.455Z,97.23
2018-05-14T02:35:53.502Z,97.52
2018-05-14T02:36:53.491Z,97.33
2018-05-14T02:37:53.527Z,97.71
2018-05-14T02:38:53.568Z,97.71
2018-05-14T02:39:53.555Z,98.57
2018-05-14T02:40:53.584Z,98.75
2018-05-14T02:41:53.664Z,98.47
2018-05-14T02:42:53.616Z,98.09
2018-05-14T02:43:53.634Z,98.24
2018-05-14T02:44:53.655Z,97.80
2018-05-14T02:45:53.696Z,97.99
2018-05-14T02:46:53.690Z,96.94
2018-05-14T02:47:53.710Z,97.04
2018-05-14T02:48:53.745Z,97.42
2018-05-14T02:49:53.755Z,97.13
2018-05-14T02:50:53.766Z,97.33
2018-05-14T02:51:53.818Z,97.23
2018-05-14T02:52:53.918Z,97.13
2018-05-14T02:53:53.828Z,97.61
2018-05-14T02:54:53.906Z,97.42
2018-05-14T02:55:53.874Z,97.71
2018-05-14T02:56:53.899Z,97.61
2018-05-14T02:57:53.905Z,97.61
2018-05-14T02:58:53.923Z,97.13
2018-05-14T02:59:53.944Z,97.71
2018-05-14T03:00:54.010Z,97.13
2018-05-14T03:01:54.054Z,97.52
2018-05-14T03:02:54.003Z,97.52
2018-05-14T03:03:54.022Z,97.94
2018-05-14T03:04:54.083Z,97.71
2018-05-14T03:05:54.066Z,96.80
2018-05-14T03:06:54.081Z,97.28
2018-05-14T03:07:54.108Z,98.23
2018-05-14T03:08:54.177Z,97.42
2018-05-14T03:09:54.170Z,96.27
2018-05-14T03:10:54.152Z,95.98
2018-05-14T03:11:54.232Z,95.56
2018-05-14T03:12:54.257Z,98.08
2018-05-14T03:13:54.218Z,98.99
2018-05-14T03:14:54.273Z,98.61
2018-05-14T03:15:54.256Z,98.42
2018-05-14T03:16:54.384Z,98.71
2018-05-14T03:17:54.299Z,97.85
2018-05-14T03:18:54.307Z,98.33
2018-05-14T03:19:54.329Z,98.33
2018-05-14T03:20:54.557Z,98.90
2018-05-14T03:21:54.377Z,97.94
2018-05-14T03:22:54.389Z,97.47
2018-05-14T03:23:54.412Z,97.47
2018-05-14T03:24:54.449Z,97.66
2018-05-14T03:25:54.452Z,97.47
2018-05-14T03:26:54.472Z,97.85
2018-05-14T03:27:54.488Z,98.23
2018-05-14T03:28:54.531Z,97.56
2018-05-14T03:29:54.528Z,96.61
2018-05-14T03:30:54.545Z,96.61
2018-05-14T03:31:54.573Z,97.66
2018-05-14T03:32:54.596Z,98.47
2018-05-14T03:33:54.611Z,99.14
2018-05-14T03:34:54.628Z,99.62
2018-05-14T03:35:54.638Z,99.14
2018-05-14T03:36:54.661Z,99.62
2018-05-14T03:37:54.705Z,98.52
2018-05-14T03:38:54.804Z,98.23
2018-05-14T03:39:54.713Z,97.85
2018-05-14T03:40:54.795Z,98.23
2018-05-14T03:41:54.759Z,97.47
2018-05-14T03:42:54.782Z,97.47
2018-05-14T03:43:54.796Z,99.43
2018-05-14T03:44:54.826Z,99.99
2018-05-14T03:45:54.845Z,99.80
2018-05-14T03:46:54.857Z,99.99
2018-05-14T03:47:54.871Z,99.43
2018-05-14T03:48:54.895Z,99.99
2018-05-14T03:49:54.926Z,99.99
2018-05-14T03:50:54.937Z,99.99
2018-05-14T03:51:54.943Z,99.99
2018-05-14T03:52:54.978Z,99.99
2018-05-14T03:53:54.987Z,99.99
2018-05-14T03:54:55.174Z,99.23
2018-05-14T03:55:55.022Z,99.62
2018-05-14T03:56:55.078Z,99.95
2018-05-14T03:57:55.060Z,99.99
2018-05-14T03:58:55.088Z,99.33
2018-05-14T03:59:55.105Z,98.66
2018-05-14T04:00:55.202Z,98.99
2018-05-14T04:01:55.136Z,99.99
2018-05-14T04:02:55.160Z,99.99
2018-05-14T04:03:55.173Z,99.52
2018-05-14T04:04:55.205Z,98.94
2018-05-14T04:05:55.214Z,98.85
2018-05-14T04:06:55.256Z,99.08
2018-05-14T04:07:55.262Z,99.23
2018-05-14T04:08:55.284Z,99.62
2018-05-14T04:09:55.299Z,99.43
2018-05-14T04:10:55.341Z,99.80
2018-05-14T04:11:55.372Z,99.90
2018-05-14T04:12:55.356Z,98.66
2018-05-14T04:13:55.370Z,99.14
2018-05-14T04:14:55.393Z,98.47
2018-05-14T04:15:55.415Z,98.37
2018-05-14T04:16:55.501Z,98.90
2018-05-14T04:17:55.444Z,98.23
2018-05-14T04:18:55.586Z,97.28
2018-05-14T04:19:55.481Z,95.84
2018-05-14T04:20:55.539Z,95.56
2018-05-14T04:21:55.524Z,95.75
2018-05-14T04:22:55.626Z,96.56
2018-05-14T04:23:55.571Z,97.08
2018-05-14T04:24:55.588Z,96.56
2018-05-14T04:25:55.599Z,97.13
2018-05-14T04:26:55.622Z,95.84
2018-05-14T04:27:55.646Z,95.79
2018-05-14T04:28:55.769Z,94.65
2018-05-14T04:29:55.713Z,94.41
2018-05-14T04:30:55.701Z,95.65
2018-05-14T04:31:55.781Z,96.32
2018-05-14T04:32:55.745Z,96.22
2018-05-14T04:33:55.797Z,95.51
2018-05-14T04:34:55.848Z,94.02
2018-05-14T04:35:55.808Z,92.49
2018-05-14T04:36:55.834Z,93.40
2018-05-14T04:37:55.938Z,94.36
2018-05-14T04:38:55.856Z,93.21
2018-05-14T04:39:55.923Z,92.64
2018-05-14T04:40:55.895Z,93.98
2018-05-14T04:41:55.961Z,94.55
2018-05-14T04:42:56.009Z,94.17
2018-05-14T04:43:55.962Z,94.26
2018-05-14T04:44:55.980Z,94.46
2018-05-14T04:45:56.073Z,94.55
2018-05-14T04:46:56.014Z,95.51
2018-05-14T04:47:56.091Z,93.84
2018-05-14T04:48:56.077Z,91.77
2018-05-14T04:49:56.118Z,91.92
2018-05-14T04:50:56.101Z,92.78
2018-05-14T04:51:56.154Z,91.15
2018-05-14T04:52:56.133Z,88.90
2018-05-14T04:53:56.164Z,86.16
2018-05-14T04:54:56.176Z,83.08
2018-05-14T04:55:56.190Z,80.82
2018-05-14T04:56:56.216Z,78.78
2018-05-14T04:57:56.343Z,77.51
2018-05-14T04:58:56.269Z,74.29
2018-05-14T04:59:56.280Z,72.11
2018-05-14T05:00:56.302Z,70.56
2018-05-14T05:01:56.326Z,70.06
2018-05-14T05:02:56.349Z,68.54
2018-05-14T05:03:56.566Z,69.41
2018-05-14T05:04:56.427Z,70.44
2018-05-14T05:05:56.432Z,67.81
2018-05-14T05:06:56.464Z,64.18
2018-05-14T05:07:56.673Z,63.66
2018-05-14T05:08:56.484Z,62.51
2018-05-14T05:09:56.537Z,64.21
2018-05-14T05:10:56.672Z,65.40
2018-05-14T05:11:56.723Z,64.56
2018-05-14T05:12:56.668Z,63.18
2018-05-14T05:13:56.632Z,65.24
2018-05-14T05:14:56.650Z,66.46
2018-05-14T05:15:56.715Z,68.16
2018-05-14T05:16:56.681Z,68.93
2018-05-14T05:17:56.718Z,69.25
2018-05-14T05:18:56.735Z,67.74
2018-05-14T05:19:56.757Z,66.72
2018-05-14T05:20:56.840Z,66.78
2018-05-14T05:21:56.861Z,67.23
2018-05-14T05:22:56.841Z,66.27
2018-05-14T05:23:56.937Z,63.70
2018-05-14T05:24:56.888Z,63.28
2018-05-14T05:25:57.035Z,61.30
2018-05-14T05:26:56.938Z,59.05
2018-05-14T05:27:56.962Z,59.28
2018-05-14T05:28:57.046Z,58.07
2018-05-14T05:29:57.023Z,58.34
2018-05-14T05:30:57.106Z,57.28
2018-05-14T05:31:57.146Z,57.28
2018-05-14T05:32:57.101Z,59.80
2018-05-14T05:33:57.160Z,60.93
2018-05-14T05:34:57.151Z,61.80
2018-05-14T05:35:57.176Z,61.15
2018-05-14T05:36:57.207Z,59.66
2018-05-14T05:37:57.310Z,59.11
2018-05-14T05:38:57.291Z,58.24
2018-05-14T05:39:57.307Z,57.95
2018-05-14T05:40:57.401Z,58.21
2018-05-14T05:41:57.372Z,59.63
2018-05-14T05:42:57.369Z,59.23
2018-05-14T05:43:57.397Z,56.90
2018-05-14T05:44:57.423Z,53.83
2018-05-14T05:45:57.448Z,53.47
2018-05-14T05:46:57.478Z,53.39
2018-05-14T05:47:57.504Z,51.89
2018-05-14T05:48:57.614Z,50.63
2018-05-14T05:49:57.595Z,49.99
2018-05-14T05:50:57.734Z,48.68
2018-05-14T05:51:57.617Z,47.07
2018-05-14T05:52:57.732Z,47.64
2018-05-14T05:53:57.748Z,49.51
2018-05-14T05:54:57.705Z,48.34
2018-05-14T05:55:57.756Z,48.34
2018-05-14T05:56:57.762Z,48.83
2018-05-14T05:57:57.795Z,47.78
2018-05-14T05:58:57.924Z,48.30
2018-05-14T05:59:57.845Z,49.29
2018-05-14T06:00:57.876Z,50.70
2018-05-14T06:01:57.926Z,50.60
2018-05-14T06:02:57.994Z,51.26
2018-05-14T06:03:57.976Z,50.04
2018-05-14T06:04:58.073Z,50.21
2018-05-14T06:05:58.076Z,51.60
2018-05-14T06:06:58.065Z,50.75
2018-05-14T06:07:58.077Z,48.75
2018-05-14T06:08:58.115Z,46.17
2018-05-14T06:09:58.146Z,47.74
2018-05-14T06:10:58.208Z,50.65
2018-05-14T06:11:58.193Z,49.29
2018-05-14T06:12:58.238Z,45.75
2018-05-14T06:13:58.261Z,43.26
2018-05-14T06:14:58.301Z,43.36
2018-05-14T06:15:58.317Z,42.52
2018-05-14T06:16:58.342Z,41.96
2018-05-14T06:17:58.377Z,41.82
2018-05-14T06:18:58.400Z,42.64
2018-05-14T06:19:58.431Z,40.92
2018-05-14T06:20:58.457Z,40.58
2018-05-14T06:21:58.493Z,40.16
2018-05-14T06:22:58.530Z,39.88
2018-05-14T06:23:58.549Z,38.04
2018-05-14T06:24:58.580Z,37.65
2018-05-14T06:25:58.612Z,37.66
2018-05-14T06:26:58.646Z,36.68
2018-05-14T06:27:58.753Z,35.54
2018-05-14T06:28:58.707Z,35.46
2018-05-14T06:29:58.746Z,35.41
2018-05-14T06:30:58.761Z,35.05
2018-05-14T06:31:58.794Z,34.28
2018-05-14T06:32:58.828Z,35.65
2018-05-14T06:33:58.888Z,36.16
2018-05-14T06:34:58.921Z,35.35
2018-05-14T06:35:58.921Z,36.38
2018-05-14T06:36:58.950Z,37.27
2018-05-14T06:37:58.980Z,37.79
2018-05-14T06:38:59.015Z,37.02
2018-05-14T06:39:59.173Z,35.89
2018-05-14T06:40:59.238Z,35.06
2018-05-14T06:41:59.108Z,38.43
2018-05-14T06:42:59.217Z,38.34
2018-05-14T06:43:59.161Z,34.60
2018-05-14T06:44:59.197Z,34.72
2018-05-14T06:45:59.351Z,35.12
2018-05-14T06:46:59.259Z,36.94
2018-05-14T06:47:59.343Z,38.06
2018-05-14T06:48:59.436Z,36.37
2018-05-14T06:49:59.360Z,38.02
2018-05-14T06:50:59.387Z,36.11
2018-05-14T06:51:59.409Z,35.75
2018-05-14T06:52:59.560Z,38.49
2018-05-14T06:53:59.479Z,38.43
2018-05-14T06:54:59.509Z,37.65
2018-05-14T06:55:59.539Z,36.05
2018-05-14T06:56:59.564Z,37.95
2018-05-14T06:57:59.690Z,37.96
2018-05-14T06:58:59.637Z,40.08
2018-05-14T06:59:59.665Z,37.27
2018-05-14T07:00:59.688Z,37.17
2018-05-14T07:01:59.818Z,36.28
2018-05-14T07:02:59.757Z,33.95
2018-05-14T07:03:59.786Z,34.38
2018-05-14T07:04:59.890Z,34.28
2018-05-14T07:05:59.852Z,38.09
2018-05-14T07:06:59.877Z,38.45
2018-05-14T07:07:59.899Z,39.80
2018-05-14T07:08:59.928Z,36.39
2018-05-14T07:09:59.977Z,35.51
2018-05-14T07:11:00.089Z,35.72
2018-05-14T07:12:00.022Z,38.53
2018-05-14T07:13:00.056Z,35.22
2018-05-14T07:14:00.150Z,38.01
2018-05-14T07:15:00.113Z,38.69
2018-05-14T07:16:00.149Z,38.38
2018-05-14T07:17:00.245Z,34.68
2018-05-14T07:18:00.204Z,35.97
2018-05-14T07:19:00.247Z,35.19
2018-05-14T07:20:00.323Z,35.84
2018-05-14T07:21:00.410Z,34.64
2018-05-14T07:22:00.402Z,33.26
2018-05-14T07:23:00.366Z,32.74
2018-05-14T07:24:00.490Z,30.22
2018-05-14T07:25:00.421Z,32.32
2018-05-14T07:26:00.543Z,32.07
2018-05-14T07:27:00.480Z,32.40
2018-05-14T07:28:00.507Z,34.77
2018-05-14T07:29:00.534Z,35.01
2018-05-14T07:30:00.586Z,33.29
2018-05-14T07:31:00.661Z,34.65
2018-05-14T07:32:00.639Z,31.81
2018-05-14T07:33:00.659Z,34.72
2018-05-14T07:34:00.692Z,33.34
2018-05-14T07:35:00.713Z,33.95
2018-05-14T07:36:00.781Z,34.47
2018-05-14T07:37:00.781Z,32.65
2018-05-14T07:38:00.801Z,33.34
2018-05-14T07:39:00.832Z,33.64
2018-05-14T07:40:00.893Z,34.32
2018-05-14T07:41:00.906Z,35.46
2018-05-14T07:42:00.922Z,33.84
2018-05-14T07:43:00.953Z,31.54
2018-05-14T07:44:00.981Z,31.16
2018-05-14T07:45:01.017Z,32.82
2018-05-14T07:46:01.115Z,33.72
2018-05-14T07:47:01.068Z,32.30
2018-05-14T07:48:01.106Z,31.35
2018-05-14T07:49:01.125Z,29.77
2018-05-14T07:50:01.162Z,31.04
2018-05-14T07:51:01.180Z,31.01
2018-05-14T07:52:01.216Z,29.73
2018-05-14T07:53:01.243Z,30.81
2018-05-14T07:54:01.270Z,30.81
2018-05-14T07:55:01.299Z,34.18
2018-05-14T07:56:01.331Z,33.26
2018-05-14T07:57:01.400Z,34.01
2018-05-14T07:58:01.391Z,33.97
2018-05-14T07:59:01.487Z,34.06
2018-05-14T08:00:01.475Z,33.28
2018-05-14T08:01:01.523Z,32.53
2018-05-14T08:02:01.507Z,34.67
2018-05-14T08:03:01.540Z,35.36
2018-05-14T08:04:01.612Z,36.26
2018-05-14T08:05:01.594Z,35.56
2018-05-14T08:06:01.620Z,33.31
2018-05-14T08:07:01.649Z,32.17
2018-05-14T08:08:01.680Z,33.92
2018-05-14T08:09:01.706Z,33.34
2018-05-14T08:10:01.740Z,33.90
2018-05-14T08:11:01.797Z,32.50
2018-05-14T08:12:01.835Z,32.27
2018-05-14T08:13:01.850Z,34.39
2018-05-14T08:14:01.849Z,34.31
2018-05-14T08:15:01.995Z,35.69
2018-05-14T08:16:01.913Z,34.99
2018-05-14T08:17:01.982Z,35.66
2018-05-14T08:18:01.964Z,34.41
2018-05-14T08:19:02.000Z,35.40
2018-05-14T08:20:02.162Z,35.04
2018-05-14T08:21:02.060Z,33.17
2018-05-14T08:22:02.082Z,34.48
2018-05-14T08:23:02.106Z,34.96
2018-05-14T08:24:02.132Z,34.05
2018-05-14T08:25:02.159Z,34.96
2018-05-14T08:26:02.193Z,35.59
2018-05-14T08:27:02.217Z,36.88
2018-05-14T08:28:02.344Z,40.58
2018-05-14T08:29:02.272Z,38.67
2018-05-14T08:30:02.294Z,39.14
2018-05-14T08:31:02.324Z,40.23
2018-05-14T08:32:02.414Z,39.03
2018-05-14T08:33:02.445Z,40.25
2018-05-14T08:34:02.497Z,42.29
2018-05-14T08:35:02.473Z,43.44
2018-05-14T08:36:02.452Z,41.63
2018-05-14T08:37:02.573Z,42.46
2018-05-14T08:38:02.504Z,42.68
2018-05-14T08:39:02.535Z,41.61
2018-05-14T08:40:02.637Z,42.78
2018-05-14T08:41:02.581Z,43.82
2018-05-14T08:42:02.611Z,44.48
2018-05-14T08:43:02.626Z,45.75
2018-05-14T08:44:02.658Z,44.56
2018-05-14T08:45:02.678Z,44.27
2018-05-14T08:46:02.708Z,42.43
2018-05-14T08:47:02.733Z,43.59
2018-05-14T08:48:02.834Z,45.45
2018-05-14T08:49:02.784Z,42.61
2018-05-14T08:50:02.883Z,43.37
2018-05-14T08:51:02.830Z,43.37
2018-05-14T08:52:02.868Z,45.02
2018-05-14T08:53:02.891Z,44.90
2018-05-14T08:54:02.902Z,42.40
2018-05-14T08:55:02.993Z,41.55
2018-05-14T08:56:02.959Z,42.36
2018-05-14T08:57:03.205Z,43.43
2018-05-14T08:58:02.998Z,43.12
2018-05-14T08:59:03.067Z,43.84
2018-05-14T09:00:03.131Z,45.02
2018-05-14T09:01:03.077Z,43.68
2018-05-14T09:02:03.096Z,42.35
2018-05-14T09:03:03.125Z,42.21
2018-05-14T09:04:03.145Z,41.99
2018-05-14T09:05:03.278Z,42.57
2018-05-14T09:06:03.214Z,43.35
2018-05-14T09:07:03.495Z,42.48
2018-05-14T09:08:03.252Z,42.29
2018-05-14T09:09:03.526Z,44.03
2018-05-14T09:10:03.323Z,43.16
2018-05-14T09:11:03.318Z,42.38
2018-05-14T09:12:03.428Z,43.16
2018-05-14T09:13:03.420Z,42.30
2018-05-14T09:14:03.395Z,42.50
2018-05-14T09:15:03.417Z,42.57
2018-05-14T09:16:03.496Z,42.43
2018-05-14T09:17:03.475Z,44.44
2018-05-14T09:18:03.626Z,43.16
2018-05-14T09:19:03.517Z,43.33
2018-05-14T09:20:03.538Z,44.49
2018-05-14T09:21:03.578Z,43.16
2018-05-14T09:22:03.656Z,43.54
2018-05-14T09:23:03.612Z,43.40
2018-05-14T09:24:03.662Z,43.27
2018-05-14T09:25:03.657Z,42.40
2018-05-14T09:26:03.683Z,41.82
2018-05-14T09:27:03.699Z,41.74
2018-05-14T09:28:03.729Z,42.02
2018-05-14T09:29:03.761Z,41.26
2018-05-14T09:30:03.774Z,42.03
2018-05-14T09:31:03.855Z,42.64
2018-05-14T09:32:03.836Z,41.57
2018-05-14T09:33:03.845Z,41.30
2018-05-14T09:34:03.876Z,38.95
2018-05-14T09:35:04.040Z,41.28
2018-05-14T09:36:03.923Z,40.60
2018-05-14T09:37:03.944Z,40.03
2018-05-14T09:38:03.969Z,39.18
2018-05-14T09:39:04.063Z,41.69
2018-05-14T09:40:04.084Z,41.78
2018-05-14T09:41:04.116Z,39.72
2018-05-14T09:42:04.095Z,38.67
2018-05-14T09:43:04.125Z,39.65
2018-05-14T09:44:04.116Z,40.42
2018-05-14T09:45:04.164Z,40.23
2018-05-14T09:46:04.308Z,40.48
2018-05-14T09:47:04.188Z,40.77
2018-05-14T09:48:04.212Z,41.08
2018-05-14T09:49:04.234Z,41.78
2018-05-14T09:50:04.262Z,40.91
2018-05-14T09:51:04.296Z,39.72
2018-05-14T09:52:04.381Z,41.28
2018-05-14T09:53:04.398Z,40.31
2018-05-14T09:54:04.373Z,40.29
2018-05-14T09:55:04.428Z,39.45
2018-05-14T09:56:04.407Z,37.70
2018-05-14T09:57:04.434Z,38.96
2018-05-14T09:58:04.553Z,38.19
2018-05-14T09:59:04.623Z,36.73
2018-05-14T10:00:04.605Z,38.29
2018-05-14T10:01:04.532Z,36.42
2018-05-14T10:02:04.751Z,38.19
2018-05-14T10:03:04.589Z,37.60
2018-05-14T10:04:04.604Z,36.63
2018-05-14T10:05:04.648Z,37.70
2018-05-14T10:06:04.673Z,38.27
2018-05-14T10:07:04.675Z,36.91
2018-05-14T10:08:04.706Z,36.83
2018-05-14T10:09:04.728Z,38.11
2018-05-14T10:10:04.751Z,37.90
2018-05-14T10:11:04.778Z,37.70
2018-05-14T10:12:04.802Z,37.02
2018-05-14T10:13:04.833Z,38.87
2018-05-14T10:14:04.849Z,38.19
2018-05-14T10:15:05.005Z,36.42
2018-05-14T10:16:04.898Z,37.22
2018-05-14T10:17:04.923Z,38.39
2018-05-14T10:18:04.945Z,38.87
2018-05-14T10:19:04.972Z,37.43
2018-05-14T10:20:05.003Z,37.82
2018-05-14T10:21:05.084Z,35.37
2018-05-14T10:22:05.046Z,35.66
2018-05-14T10:23:05.072Z,37.60
2018-05-14T10:24:05.119Z,38.79
2018-05-14T10:25:05.163Z,39.29
2018-05-14T10:26:05.145Z,37.93
2018-05-14T10:27:05.178Z,37.06
2018-05-14T10:28:05.197Z,36.67
2018-05-14T10:29:05.236Z,36.87
2018-05-14T10:30:05.239Z,36.93
2018-05-14T10:31:05.268Z,39.28
2018-05-14T10:32:05.347Z,36.94
2018-05-14T10:33:05.314Z,36.07
2018-05-14T10:34:05.343Z,35.66
2018-05-14T10:35:05.367Z,36.93
2018-05-14T10:36:05.391Z,36.55
2018-05-14T10:37:05.413Z,37.54
2018-05-14T10:38:05.441Z,35.86
2018-05-14T10:39:05.555Z,36.91
2018-05-14T10:40:05.546Z,35.76
2018-05-14T10:41:05.523Z,35.66
2018-05-14T10:42:05.547Z,35.35
2018-05-14T10:43:05.602Z,35.96
2018-05-14T10:44:05.584Z,36.83
2018-05-14T10:45:05.615Z,35.37
2018-05-14T10:46:05.644Z,35.27
2018-05-14T10:47:05.682Z,36.93
2018-05-14T10:48:05.729Z,34.88
2018-05-14T10:49:05.751Z,34.30
2018-05-14T10:50:05.736Z,35.57
2018-05-14T10:51:05.759Z,35.66
2018-05-14T10:52:05.832Z,35.37
2018-05-14T10:53:05.807Z,34.98
2018-05-14T10:54:05.838Z,34.80
2018-05-14T10:55:05.864Z,35.02
2018-05-14T10:56:05.895Z,35.68
2018-05-14T10:57:05.909Z,36.65
2018-05-14T10:58:05.963Z,34.61
2018-05-14T10:59:05.961Z,33.62
2018-05-14T11:00:05.978Z,35.10
2018-05-14T11:01:06.003Z,34.61
2018-05-14T11:02:06.029Z,35.29
2018-05-14T11:03:06.072Z,35.78
2018-05-14T11:04:06.165Z,34.90
2018-05-14T11:05:06.116Z,34.50
2018-05-14T11:06:06.133Z,34.01
2018-05-14T11:07:06.158Z,34.32
2018-05-14T11:08:06.179Z,33.64
2018-05-14T11:09:06.209Z,34.22
2018-05-14T11:10:06.347Z,34.69
2018-05-14T11:11:06.253Z,33.91
2018-05-14T11:12:06.311Z,34.67
2018-05-14T11:13:06.301Z,35.35
2018-05-14T11:14:06.335Z,35.25
2018-05-14T11:15:06.356Z,35.76
2018-05-14T11:16:06.373Z,35.08
2018-05-14T11:17:06.407Z,35.45
2018-05-14T11:18:06.422Z,35.55
2018-05-14T11:19:06.452Z,35.84
2018-05-14T11:20:06.473Z,34.79
2018-05-14T11:21:06.543Z,37.12
2018-05-14T11:22:06.523Z,34.79
2018-05-14T11:23:06.550Z,35.25
2018-05-14T11:24:06.567Z,35.64
2018-05-14T11:25:06.621Z,36.83
2018-05-14T11:26:06.625Z,35.58
2018-05-14T11:27:06.680Z,36.18
2018-05-14T11:28:06.726Z,35.10
2018-05-14T11:29:06.699Z,35.31
2018-05-14T11:30:06.716Z,34.70
2018-05-14T11:31:06.741Z,35.68
2018-05-14T11:32:06.805Z,35.76
2018-05-14T11:33:06.790Z,35.47
2018-05-14T11:34:06.820Z,35.68
2018-05-14T11:35:06.911Z,36.96
2018-05-14T11:36:06.917Z,37.04
2018-05-14T11:37:06.888Z,36.16
2018-05-14T11:38:06.917Z,35.78
2018-05-14T11:39:06.938Z,38.40
2018-05-14T11:40:06.963Z,35.25
2018-05-14T11:41:07.002Z,35.72
2018-05-14T11:42:07.102Z,37.01
2018-05-14T11:43:07.126Z,37.01
2018-05-14T11:44:07.062Z,36.73
2018-05-14T11:45:07.089Z,38.19
2018-05-14T11:46:07.180Z,37.01
2018-05-14T11:47:07.139Z,36.73
2018-05-14T11:48:07.249Z,35.00
2018-05-14T11:49:07.184Z,35.25
2018-05-14T11:50:07.203Z,36.32
2018-05-14T11:51:07.336Z,36.91
2018-05-14T11:52:07.253Z,36.93
2018-05-14T11:53:07.291Z,36.07
2018-05-14T11:54:07.351Z,35.39
2018-05-14T11:55:07.331Z,35.50
2018-05-14T11:56:07.355Z,36.96
2018-05-14T11:57:07.376Z,34.88
2018-05-14T11:58:07.475Z,35.39
2018-05-14T11:59:07.432Z,35.39
2018-05-14T12:00:07.457Z,33.44
2018-05-14T12:01:07.474Z,35.68
2018-05-14T12:02:07.497Z,35.68
2018-05-14T12:03:07.621Z,36.34
2018-05-14T12:04:07.632Z,34.11
2018-05-14T12:05:07.574Z,34.88
2018-05-14T12:06:07.594Z,33.41
2018-05-14T12:07:07.636Z,34.88
2018-05-14T12:08:07.646Z,36.24
2018-05-14T12:09:07.678Z,36.85
2018-05-14T12:10:07.788Z,34.01
2018-05-14T12:11:07.773Z,34.69
2018-05-14T12:12:07.763Z,35.27
2018-05-14T12:13:07.773Z,35.29
2018-05-14T12:14:07.793Z,36.85
2018-05-14T12:15:07.824Z,34.69
2018-05-14T12:16:07.895Z,35.08
2018-05-14T12:17:07.937Z,35.64
2018-05-14T12:18:07.950Z,36.42
2018-05-14T12:19:07.952Z,34.79
2018-05-14T12:20:07.949Z,35.10
2018-05-14T12:21:08.057Z,34.77
2018-05-14T12:22:08.115Z,36.63
2018-05-14T12:23:08.114Z,35.97
2018-05-14T12:24:08.076Z,36.26
2018-05-14T12:25:08.117Z,38.23
2018-05-14T12:26:08.102Z,35.50
2018-05-14T12:27:08.158Z,35.33
2018-05-14T12:28:08.142Z,35.21
2018-05-14T12:29:08.162Z,35.97
2018-05-14T12:30:08.186Z,35.58
2018-05-14T12:31:08.216Z,37.24
2018-05-14T12:32:08.286Z,35.66
2018-05-14T12:33:08.261Z,34.70
2018-05-14T12:34:08.317Z,34.82
2018-05-14T12:35:08.403Z,36.54
2018-05-14T12:36:08.341Z,35.47
2018-05-14T12:37:08.459Z,36.83
2018-05-14T12:38:08.383Z,35.58
2018-05-14T12:39:08.410Z,36.63
2018-05-14T12:40:08.434Z,35.47
2018-05-14T12:41:08.469Z,35.25
2018-05-14T12:42:08.492Z,36.05
2018-05-14T12:43:08.503Z,35.27
2018-05-14T12:44:08.605Z,36.91
2018-05-14T12:45:08.623Z,36.15
2018-05-14T12:46:08.583Z,36.83
2018-05-14T12:47:08.632Z,35.47
2018-05-14T12:48:08.633Z,35.88
2018-05-14T12:49:08.761Z,35.80
2018-05-14T12:50:08.682Z,36.18
2018-05-14T12:51:08.707Z,35.41
2018-05-14T12:52:08.728Z,34.90
2018-05-14T12:53:08.752Z,34.52